Time;durP1;ratioP1;P1;durP2;ratioP2;P2;SDS_P1;SDS_P2;PMS_P1;PMS_P2;Temp;Humidity;BMP_temperature;BMP_pressure;BME280_temperature;BME280_humidity;BME280_pressure;Samples;Min_cycle;Max_cycle;Signal;HPM_P1;HPM_P2
2023/12/25 00:01:21;;;;;;;0.93;0.60;;;;;;;18.90;52.43;100496.09;5066095;28;20032;-67
2023/12/25 00:03:46;;;;;;;1.42;0.90;;;;;;;18.93;52.50;100511.69;5065171;28;20040;-67
2023/12/25 00:06:12;;;;;;;1.48;0.70;;;;;;;18.88;52.30;100489.28;5066320;28;20457;-67
2023/12/25 00:08:37;;;;;;;0.93;0.70;;;;;;;18.90;52.21;100484.69;5066151;28;20024;-66
2023/12/25 00:11:02;;;;;;;2.63;0.75;;;;;;;18.90;52.32;100497.88;5064223;28;20055;-67
2023/12/25 00:13:28;;;;;;;3.70;0.90;;;;;;;18.88;52.29;100494.56;5065920;28;20025;-67
2023/12/25 00:15:53;;;;;;;1.63;0.70;;;;;;;18.79;52.30;100478.56;5065661;28;20107;-67
2023/12/25 00:18:18;;;;;;;0.93;0.70;;;;;;;18.85;52.37;100485.97;5066047;28;21034;-67
2023/12/25 00:20:43;;;;;;;1.38;0.60;;;;;;;18.83;52.13;100479.97;5065379;28;20277;-67
2023/12/25 00:23:09;;;;;;;1.80;0.70;;;;;;;18.85;52.36;100464.84;5066148;28;20043;-67
2023/12/25 00:25:34;;;;;;;1.40;0.70;;;;;;;18.87;52.24;100474.41;5066080;28;20044;-70
2023/12/25 00:27:59;;;;;;;1.40;0.65;;;;;;;18.81;52.22;100452.00;5065583;28;20020;-68
2023/12/25 00:30:25;;;;;;;1.23;0.63;;;;;;;18.77;52.24;100464.66;5066354;28;20036;-69
2023/12/25 00:32:50;;;;;;;1.65;0.85;;;;;;;18.77;52.50;100469.94;5066588;28;20315;-67
2023/12/25 00:35:15;;;;;;;1.20;0.73;;;;;;;18.75;52.02;100456.03;5066263;28;20036;-68
2023/12/25 00:37:40;;;;;;;1.13;0.70;;;;;;;18.77;52.20;100463.81;5063341;28;20120;-67
2023/12/25 00:40:07;;;;;;;1.05;0.70;;;;;;;18.83;51.99;100473.81;5064423;28;20075;-69
2023/12/25 00:42:32;;;;;;;2.13;0.70;;;;;;;18.70;52.15;100457.44;5065295;28;20103;-68
2023/12/25 00:44:57;;;;;;;1.90;0.73;;;;;;;18.78;52.15;100486.59;5065514;28;20123;-69
2023/12/25 00:47:22;;;;;;;1.58;0.70;;;;;;;18.73;52.19;100471.19;5064619;28;20088;-68
2023/12/25 00:49:48;;;;;;;0.85;0.60;;;;;;;18.71;52.06;100467.84;5065841;28;20428;-69
2023/12/25 00:52:17;;;;;;;1.45;0.70;;;;;;;18.79;52.22;100488.28;5066018;28;20072;-68
2023/12/25 00:54:43;;;;;;;0.98;0.70;;;;;;;18.78;52.31;100500.63;5065285;28;20024;-68
2023/12/25 00:57:09;;;;;;;1.35;0.70;;;;;;;18.76;52.30;100497.31;5065815;28;20036;-68
2023/12/25 00:59:34;;;;;;;1.77;0.80;;;;;;;18.68;52.36;100491.88;5066360;28;20078;-69
2023/12/25 01:02:00;;;;;;;0.90;0.60;;;;;;;18.77;52.15;100508.69;5065152;28;20028;-68
2023/12/25 01:04:25;;;;;;;1.40;0.80;;;;;;;18.72;52.25;100509.09;5065069;28;20032;-68
2023/12/25 01:06:50;;;;;;;0.87;0.70;;;;;;;18.76;52.23;100513.16;5065240;28;20035;-69
2023/12/25 01:09:15;;;;;;;1.20;0.60;;;;;;;18.72;52.28;100510.91;5065594;28;20311;-68
2023/12/25 01:11:44;;;;;;;0.95;0.70;;;;;;;18.65;52.09;100507.97;5066024;28;20028;-69
2023/12/25 01:14:09;;;;;;;1.23;0.70;;;;;;;18.74;52.46;100527.44;5064882;28;20029;-68
2023/12/25 01:16:35;;;;;;;1.60;0.80;;;;;;;18.72;52.20;100522.28;5065212;28;20040;-67
2023/12/25 01:19:01;;;;;;;1.52;0.73;;;;;;;18.65;52.25;100508.81;5047891;28;20145;-68
2023/12/25 01:21:26;;;;;;;1.90;0.80;;;;;;;18.72;52.37;100517.00;5065884;28;20032;-68
2023/12/25 01:23:51;;;;;;;1.45;0.70;;;;;;;18.60;52.14;100497.00;5065494;28;20044;-67
2023/12/25 01:26:18;;;;;;;0.98;0.60;;;;;;;18.61;52.06;100493.38;5066006;28;20035;-68
2023/12/25 01:28:43;;;;;;;1.90;0.90;;;;;;;18.71;52.25;100514.50;5065859;28;20085;-68
2023/12/25 01:31:09;;;;;;;1.30;0.70;;;;;;;18.57;52.21;100492.81;5064880;28;20484;-67
2023/12/25 01:33:34;;;;;;;3.08;1.00;;;;;;;18.64;52.09;100511.59;5067609;28;20041;-67
2023/12/25 01:35:59;;;;;;;1.77;0.70;;;;;;;18.59;52.14;100492.69;5069711;28;20024;-67
2023/12/25 01:38:24;;;;;;;1.70;0.70;;;;;;;18.63;52.25;100517.84;5069304;28;20036;-69
2023/12/25 01:40:50;;;;;;;1.83;0.90;;;;;;;18.59;52.13;100509.34;5068811;28;20032;-67
2023/12/25 01:43:15;;;;;;;1.92;0.80;;;;;;;18.63;51.67;100523.97;5068885;28;20075;-68
2023/12/25 01:45:40;;;;;;;1.65;0.82;;;;;;;18.64;52.14;100525.63;5069149;28;20048;-68
2023/12/25 01:48:07;;;;;;;1.40;0.73;;;;;;;18.64;52.24;100517.72;5068975;28;20073;-68
2023/12/25 01:50:33;;;;;;;1.45;0.80;;;;;;;18.64;52.27;100514.22;5068529;28;20035;-68
2023/12/25 01:52:58;;;;;;;1.17;0.68;;;;;;;18.51;52.32;100492.53;5069462;28;20024;-68
2023/12/25 01:55:23;;;;;;;2.28;0.80;;;;;;;18.60;52.14;100518.13;5069418;28;20085;-67
2023/12/25 01:57:48;;;;;;;1.52;0.80;;;;;;;18.60;52.26;100518.13;5069272;28;20039;-68
2023/12/25 02:00:14;;;;;;;1.90;0.90;;;;;;;18.60;52.32;100516.31;5068943;28;20575;-68
2023/12/25 02:02:40;;;;;;;1.00;0.70;;;;;;;18.60;52.27;100528.69;5068121;28;20033;-68
2023/12/25 02:05:06;;;;;;;1.15;0.80;;;;;;;18.47;52.46;100510.47;5069045;28;20461;-68
2023/12/25 02:07:32;;;;;;;1.67;0.80;;;;;;;18.56;52.32;100516.72;5068863;28;20099;-68
2023/12/25 02:09:58;;;;;;;2.08;0.90;;;;;;;18.59;52.41;100524.38;5065940;28;20488;-67
2023/12/25 02:12:23;;;;;;;1.20;0.70;;;;;;;18.54;52.25;100522.13;5068029;28;20032;-68
2023/12/25 02:14:48;;;;;;;1.58;0.70;;;;;;;18.57;52.28;100531.59;5068279;28;20021;-68
2023/12/25 02:17:15;;;;;;;1.67;0.80;;;;;;;18.55;52.42;100534.38;5068775;28;20040;-67
2023/12/25 02:19:45;;;;;;;2.40;0.80;;;;;;;18.57;52.23;100545.59;5068312;28;20064;-68
2023/12/25 02:22:11;;;;;;;1.27;0.80;;;;;;;18.57;52.55;100550.88;5068726;28;20028;-69
2023/12/25 02:24:41;;;;;;;1.08;0.65;;;;;;;18.53;52.27;100549.47;5068773;28;20030;-68
2023/12/25 02:27:06;;;;;;;2.28;0.98;;;;;;;18.52;52.16;100534.63;5068765;28;20036;-68
2023/12/25 02:29:33;;;;;;;2.70;0.88;;;;;;;18.52;52.22;100531.13;5068800;28;20653;-68
2023/12/25 02:31:58;;;;;;;1.60;0.90;;;;;;;18.55;52.22;100533.50;5068717;28;20028;-68
2023/12/25 02:34:23;;;;;;;2.85;0.80;;;;;;;18.53;52.30;100546.00;5068908;28;20465;-68
2023/12/25 02:36:49;;;;;;;1.58;0.88;;;;;;;18.51;52.34;100540.88;5068516;28;20055;-67
2023/12/25 02:39:16;;;;;;;1.15;0.70;;;;;;;18.54;52.42;100532.69;5067989;28;20048;-68
2023/12/25 02:41:41;;;;;;;1.67;0.73;;;;;;;18.53;52.24;100543.38;5067609;28;20021;-67
2023/12/25 02:44:07;;;;;;;1.65;0.82;;;;;;;18.49;52.15;100530.44;5066947;28;20037;-69
2023/12/25 02:46:32;;;;;;;2.03;1.00;;;;;;;18.53;52.15;100544.19;5067388;28;20023;-67
2023/12/25 02:48:57;;;;;;;2.03;0.80;;;;;;;18.52;52.17;100544.34;5049167;28;20091;-68
2023/12/25 02:51:22;;;;;;;1.27;0.80;;;;;;;18.42;52.13;100552.22;5067951;28;20036;-67
2023/12/25 02:53:48;;;;;;;2.10;0.98;;;;;;;18.40;51.81;100541.78;5068109;28;20788;-67
2023/12/25 02:56:13;;;;;;;1.63;0.98;;;;;;;18.41;52.12;100551.41;5067887;28;20025;-67
2023/12/25 02:58:38;;;;;;;1.63;0.93;;;;;;;18.41;52.13;100551.41;5068389;28;20036;-68
2023/12/25 03:01:03;;;;;;;1.33;0.90;;;;;;;18.49;52.43;100563.91;5067969;28;20025;-67
2023/12/25 03:03:29;;;;;;;1.42;0.80;;;;;;;18.41;51.99;100555.84;5066762;28;20265;-69
2023/12/25 03:05:54;;;;;;;2.47;0.90;;;;;;;18.40;52.29;100562.91;5067956;28;20032;-67
2023/12/25 03:08:19;;;;;;;2.30;1.00;;;;;;;18.46;52.11;100569.47;5068223;28;20356;-68
2023/12/25 03:10:44;;;;;;;2.15;0.90;;;;;;;18.44;52.37;100555.59;5068120;28;20737;-67
2023/12/25 03:13:10;;;;;;;2.30;0.90;;;;;;;18.38;52.27;100543.75;5067404;28;20029;-66
2023/12/25 03:15:35;;;;;;;1.52;0.80;;;;;;;18.37;52.18;100547.34;5067659;28;20085;-67
2023/12/25 03:18:00;;;;;;;1.33;0.80;;;;;;;18.47;52.42;100563.22;5068033;28;20477;-68
2023/12/25 03:20:26;;;;;;;1.10;0.80;;;;;;;18.35;52.16;100544.00;5067450;28;20308;-67
2023/12/25 03:22:51;;;;;;;1.60;0.80;;;;;;;18.45;52.07;100555.44;5067285;28;20028;-68
2023/12/25 03:25:16;;;;;;;1.70;0.85;;;;;;;18.41;52.01;100553.22;5066464;28;20032;-69
2023/12/25 03:27:42;;;;;;;1.60;0.90;;;;;;;18.45;52.22;100567.78;5067120;28;20028;-67
2023/12/25 03:30:07;;;;;;;1.55;0.85;;;;;;;18.41;52.19;100553.22;5066234;28;20610;-69
2023/12/25 03:32:34;;;;;;;1.33;0.90;;;;;;;18.41;52.32;100554.03;5066640;28;20047;-69
2023/12/25 03:34:59;;;;;;;1.63;1.00;;;;;;;18.42;52.07;100562.78;5066768;28;20047;-68
2023/12/25 03:37:25;;;;;;;2.13;1.02;;;;;;;18.40;52.18;100575.28;5066278;28;20036;-67
2023/12/25 03:39:51;;;;;;;2.35;1.02;;;;;;;18.43;52.20;100573.19;5067245;28;20043;-67
2023/12/25 03:42:17;;;;;;;2.53;1.08;;;;;;;18.42;52.23;100581.25;5067400;28;20032;-67
2023/12/25 03:44:42;;;;;;;1.50;0.90;;;;;;;18.40;52.30;100576.09;5067432;28;20032;-67
2023/12/25 03:47:07;;;;;;;1.52;1.00;;;;;;;18.39;52.08;100569.16;5067200;28;20075;-67
2023/12/25 03:49:33;;;;;;;1.55;0.93;;;;;;;18.41;52.31;100580.41;5067336;28;20038;-67
2023/12/25 03:51:58;;;;;;;1.77;1.02;;;;;;;18.41;52.17;100571.69;5066899;28;20111;-67
2023/12/25 03:54:24;;;;;;;2.13;1.02;;;;;;;18.33;52.20;100566.22;5066914;28;20457;-70
2023/12/25 03:56:49;;;;;;;1.55;1.00;;;;;;;18.30;52.11;100575.22;5066738;28;20466;-66
2023/12/25 03:59:14;;;;;;;2.10;1.00;;;;;;;18.31;52.14;100590.94;5066942;28;20036;-68
2023/12/25 04:01:39;;;;;;;1.10;0.80;;;;;;;18.38;52.21;100588.59;5067114;28;20035;-67
2023/12/25 04:04:05;;;;;;;2.08;1.00;;;;;;;18.38;52.13;100598.31;5065064;28;20449;-67
2023/12/25 04:06:30;;;;;;;1.52;0.90;;;;;;;18.39;52.29;100599.97;5066448;28;20087;-67
2023/12/25 04:08:56;;;;;;;2.30;1.17;;;;;;;18.38;52.57;100600.97;5065812;28;20056;-67
2023/12/25 04:11:22;;;;;;;1.77;0.95;;;;;;;18.35;52.28;100593.31;5065982;28;20067;-68
2023/12/25 04:13:51;;;;;;;1.52;0.90;;;;;;;18.35;52.08;100588.84;5048012;28;20040;-70
2023/12/25 04:16:24;;;;;;;1.38;0.73;;;;;;;18.27;52.29;100559.66;5065869;28;20020;-68
2023/12/25 04:18:52;;;;;;;1.38;0.90;;;;;;;18.33;52.20;100574.97;5065567;28;20032;-68
2023/12/25 04:21:24;;;;;;;1.85;0.90;;;;;;;18.24;52.13;100559.94;5065978;28;20040;-68
2023/12/25 04:23:53;;;;;;;1.38;0.98;;;;;;;18.28;52.25;100556.06;5066028;28;20032;-68
2023/12/25 04:26:20;;;;;;;1.52;0.98;;;;;;;18.35;52.25;100575.66;5066115;28;20039;-68
2023/12/25 04:28:46;;;;;;;1.48;0.90;;;;;;;18.34;52.57;100566.09;5066565;28;20453;-67
2023/12/25 04:31:11;;;;;;;1.92;1.10;;;;;;;18.34;52.23;100565.25;5066526;28;20112;-69
2023/12/25 04:33:37;;;;;;;1.92;1.10;;;;;;;18.32;52.60;100570.66;5066377;28;20123;-68
2023/12/25 04:36:03;;;;;;;1.25;0.80;;;;;;;18.26;52.50;100560.63;5065859;28;20037;-68
2023/12/25 04:38:28;;;;;;;3.20;1.08;;;;;;;18.31;52.18;100559.28;5065995;28;20036;-68
2023/12/25 04:40:54;;;;;;;1.70;1.00;;;;;;;18.27;52.28;100557.84;5065356;28;20040;-68
2023/12/25 04:43:19;;;;;;;1.88;0.95;;;;;;;18.25;52.21;100551.06;5065081;28;20040;-67
2023/12/25 04:45:44;;;;;;;2.30;0.90;;;;;;;18.26;52.25;100539.53;5065431;28;20108;-67
2023/12/25 04:48:10;;;;;;;2.05;1.10;;;;;;;18.29;52.21;100557.72;5065468;28;20048;-69
2023/12/25 04:50:35;;;;;;;1.73;0.98;;;;;;;18.22;52.13;100538.13;5065090;28;20033;-68
2023/12/25 04:53:00;;;;;;;1.13;0.80;;;;;;;18.26;52.57;100550.06;5065323;28;20577;-68
2023/12/25 04:55:28;;;;;;;1.35;0.80;;;;;;;18.22;52.53;100543.41;5065049;28;20029;-68
2023/12/25 04:57:53;;;;;;;1.58;0.95;;;;;;;18.23;52.39;100532.72;5047530;28;20032;-67
2023/12/25 05:00:19;;;;;;;1.20;0.85;;;;;;;18.19;52.44;100527.84;5065446;28;20028;-68
2023/12/25 05:02:44;;;;;;;1.60;0.80;;;;;;;18.21;52.36;100520.63;5063378;28;20041;-69
2023/12/25 05:05:09;;;;;;;2.05;0.90;;;;;;;18.19;52.26;100512.84;5064866;28;20384;-68
2023/12/25 05:07:35;;;;;;;2.20;1.08;;;;;;;18.23;52.40;100531.88;5066172;28;20032;-69
2023/12/25 05:10:00;;;;;;;1.60;1.00;;;;;;;18.28;52.29;100540.25;5071566;28;20064;-69
2023/12/25 05:12:25;;;;;;;1.33;0.88;;;;;;;18.26;52.48;100540.38;5071800;28;20025;-68
2023/12/25 05:14:50;;;;;;;1.37;0.80;;;;;;;18.16;52.24;100528.94;5072777;28;20032;-68
2023/12/25 05:17:17;;;;;;;1.63;0.80;;;;;;;18.27;52.17;100544.66;5054882;28;20276;-68
2023/12/25 05:19:42;;;;;;;1.75;1.00;;;;;;;18.23;52.23;100542.41;5072166;28;20029;-67
2023/12/25 05:22:07;;;;;;;1.17;0.90;;;;;;;18.27;52.25;100539.38;5072519;28;20040;-68
2023/12/25 05:24:33;;;;;;;1.10;0.80;;;;;;;17.98;52.34;100491.00;5054135;28;20044;-67
2023/12/25 05:26:58;;;;;;;1.10;0.70;;;;;;;18.24;52.22;100544.94;5072257;28;20094;-69
2023/12/25 05:29:23;;;;;;;0.80;0.70;;;;;;;18.26;52.23;100534.25;5072336;28;20375;-70
2023/12/25 05:31:48;;;;;;;1.13;0.80;;;;;;;18.18;52.22;100531.44;5072086;28;20311;-68
2023/12/25 05:34:14;;;;;;;1.42;0.80;;;;;;;18.26;52.26;100550.06;5072052;28;20110;-69
2023/12/25 05:36:39;;;;;;;1.33;0.80;;;;;;;18.17;52.39;100529.78;5071791;28;20028;-68
2023/12/25 05:39:04;;;;;;;1.60;0.90;;;;;;;18.25;52.23;100524.69;5071619;28;20446;-69
2023/12/25 05:41:30;;;;;;;1.45;0.80;;;;;;;18.25;52.16;100538.69;5070821;28;20265;-68
2023/12/25 05:43:55;;;;;;;1.52;0.75;;;;;;;18.16;52.35;100541.31;5071477;28;20483;-69
2023/12/25 05:46:21;;;;;;;1.35;0.80;;;;;;;18.23;52.13;100548.56;5071890;28;20033;-68
2023/12/25 05:48:46;;;;;;;1.30;0.70;;;;;;;18.22;52.19;100540.78;5070936;28;20070;-68
2023/12/25 05:51:11;;;;;;;1.40;0.75;;;;;;;18.24;52.23;100552.03;5071785;28;20499;-68
2023/12/25 05:53:36;;;;;;;1.00;0.70;;;;;;;18.18;52.30;100534.09;5071433;28;20102;-67
2023/12/25 05:56:03;;;;;;;1.13;0.73;;;;;;;18.15;52.23;100522.00;5071468;28;20074;-68
2023/12/25 05:58:30;;;;;;;0.90;0.70;;;;;;;18.22;52.19;100519.66;5071268;28;20128;-68
2023/12/25 06:00:55;;;;;;;1.30;0.80;;;;;;;18.12;52.33;100519.63;5071411;28;20115;-67
2023/12/25 06:03:20;;;;;;;1.02;0.80;;;;;;;17.91;52.24;100490.66;5070683;28;20123;-70
2023/12/25 06:05:46;;;;;;;0.88;0.70;;;;;;;18.16;52.47;100530.75;5071387;28;20055;-67
2023/12/25 06:08:11;;;;;;;1.35;0.80;;;;;;;18.12;52.29;100527.56;5068740;28;20182;-68
2023/12/25 06:10:36;;;;;;;1.00;0.60;;;;;;;18.14;52.27;100528.25;5071301;28;20033;-68
2023/12/25 06:13:02;;;;;;;1.10;0.70;;;;;;;18.24;52.30;100549.38;5071828;28;20736;-68
2023/12/25 06:15:28;;;;;;;1.23;0.80;;;;;;;18.18;52.36;100537.53;5071797;28;20045;-68
2023/12/25 06:17:53;;;;;;;2.03;0.90;;;;;;;18.21;52.24;100547.00;5071320;28;20037;-67
2023/12/25 06:20:18;;;;;;;1.83;0.80;;;;;;;18.19;52.21;100543.69;5068685;28;20028;-69
2023/12/25 06:22:44;;;;;;;1.13;0.77;;;;;;;18.22;52.56;100548.69;5069194;28;20037;-67
2023/12/25 06:25:09;;;;;;;1.07;0.80;;;;;;;18.19;52.34;100543.69;5068879;28;20045;-68
2023/12/25 06:27:34;;;;;;;1.23;0.73;;;;;;;18.23;52.13;100545.91;5068991;28;20258;-67
2023/12/25 06:30:00;;;;;;;0.85;0.60;;;;;;;18.17;51.95;100529.78;5068770;28;20115;-68
2023/12/25 06:32:25;;;;;;;1.13;0.80;;;;;;;18.26;51.99;100540.38;5069006;28;20068;-68
2023/12/25 06:34:50;;;;;;;1.27;0.77;;;;;;;18.20;52.08;100530.34;5068864;28;20106;-67
2023/12/25 06:37:16;;;;;;;1.02;0.77;;;;;;;18.27;51.93;100543.84;5068399;28;20296;-68
2023/12/25 06:39:41;;;;;;;0.82;0.70;;;;;;;18.24;52.12;100537.00;5068668;28;20043;-67
2023/12/25 06:42:06;;;;;;;0.80;0.65;;;;;;;18.15;52.12;100522.00;5069009;28;20051;-67
2023/12/25 06:44:31;;;;;;;1.00;0.68;;;;;;;18.28;52.29;100540.25;5068392;28;20078;-67
2023/12/25 06:46:57;;;;;;;1.52;0.52;;;;;;;18.26;52.24;100535.09;5068165;28;20033;-67
2023/12/25 06:49:22;;;;;;;0.73;0.60;;;;;;;18.38;52.33;100548.19;5068747;28;20043;-67
2023/12/25 06:51:47;;;;;;;0.87;0.60;;;;;;;18.40;52.42;100546.25;5068589;28;20041;-67
2023/12/25 06:54:13;;;;;;;0.88;0.50;;;;;;;18.33;52.28;100534.56;5067831;28;20285;-67
2023/12/25 06:56:38;;;;;;;0.60;0.50;;;;;;;18.38;52.13;100532.38;5050040;28;20106;-68
2023/12/25 06:59:03;;;;;;;1.02;0.60;;;;;;;18.47;52.41;100544.75;5068485;28;20428;-67
2023/12/25 07:01:29;;;;;;;0.60;0.50;;;;;;;18.37;52.21;100528.03;5068010;28;20038;-67
2023/12/25 07:03:54;;;;;;;0.40;0.40;;;;;;;18.42;52.28;100533.75;5067148;28;20040;-67
2023/12/25 07:06:19;;;;;;;0.85;0.50;;;;;;;18.49;52.14;100543.63;5049404;28;20269;-67
2023/12/25 07:08:45;;;;;;;0.85;0.50;;;;;;;18.48;52.05;100538.50;5067636;28;20097;-67
2023/12/25 07:11:11;;;;;;;0.68;0.50;;;;;;;18.53;52.29;100546.84;5067696;28;20480;-67
2023/12/25 07:13:37;;;;;;;0.70;0.50;;;;;;;18.54;52.13;100563.53;5067787;28;20028;-67
2023/12/25 07:16:03;;;;;;;0.98;0.50;;;;;;;18.44;52.06;100542.38;5067971;28;20082;-68
2023/12/25 07:18:29;;;;;;;0.80;0.60;;;;;;;18.48;51.88;100555.19;5067598;28;20151;-68
2023/12/25 07:20:54;;;;;;;0.65;0.45;;;;;;;18.54;52.06;100571.44;5067493;28;20119;-67
2023/12/25 07:23:21;;;;;;;0.65;0.40;;;;;;;18.45;52.06;100552.81;5067451;28;20060;-67
2023/12/25 07:25:47;;;;;;;0.70;0.50;;;;;;;18.43;52.04;100553.91;5067926;28;20043;-67
2023/12/25 07:28:13;;;;;;;0.60;0.50;;;;;;;18.56;52.00;100577.41;5067655;28;20024;-67
2023/12/25 07:30:38;;;;;;;0.68;0.55;;;;;;;18.45;52.09;100562.50;5066541;28;20408;-67
2023/12/25 07:33:03;;;;;;;0.90;0.60;;;;;;;18.56;52.16;100582.69;5067328;28;20036;-67
2023/12/25 07:35:29;;;;;;;0.65;0.57;;;;;;;18.45;52.25;100579.19;5067311;28;20052;-66
2023/12/25 07:37:54;;;;;;;0.73;0.50;;;;;;;18.44;52.24;100564.31;5066770;28;20619;-68
2023/12/25 07:40:19;;;;;;;0.73;0.50;;;;;;;18.56;52.44;100587.97;5065919;28;20261;-68
2023/12/25 07:42:45;;;;;;;0.50;0.50;;;;;;;18.53;52.51;100582.97;5066869;28;20032;-68
2023/12/25 07:45:13;;;;;;;1.00;0.60;;;;;;;18.41;52.45;100569.03;5066641;28;20032;-67
2023/12/25 07:47:38;;;;;;;0.80;0.60;;;;;;;18.55;52.24;100597.69;5065816;28;20431;-68
2023/12/25 07:50:04;;;;;;;0.77;0.60;;;;;;;18.52;52.40;100591.81;5066233;28;20032;-68
2023/12/25 07:52:31;;;;;;;1.02;0.68;;;;;;;18.49;52.78;100595.59;5064771;28;20068;-68
2023/12/25 07:54:56;;;;;;;0.95;0.60;;;;;;;18.49;52.68;100592.94;5065709;28;20024;-70
2023/12/25 07:57:22;;;;;;;1.27;0.70;;;;;;;18.47;52.73;100589.63;5064692;28;20074;-67
2023/12/25 07:59:48;;;;;;;1.60;0.70;;;;;;;18.54;52.64;100616.31;5067011;28;20032;-68
2023/12/25 08:02:14;;;;;;;1.77;0.80;;;;;;;18.45;53.07;100595.03;5064483;28;20039;-68
2023/12/25 08:04:40;;;;;;;1.02;0.65;;;;;;;18.52;52.68;100612.94;5065487;28;20028;-67
2023/12/25 08:07:05;;;;;;;0.95;0.70;;;;;;;18.47;52.86;100606.28;5066055;28;20479;-67
2023/12/25 08:09:31;;;;;;;1.13;0.60;;;;;;;18.54;53.10;100621.59;5066585;28;20453;-69
2023/12/25 08:11:56;;;;;;;0.93;0.70;;;;;;;18.51;52.75;100625.31;5048286;28;20032;-69
2023/12/25 08:14:21;;;;;;;0.90;0.70;;;;;;;18.58;52.99;100631.75;5065763;28;20465;-68
2023/12/25 08:16:47;;;;;;;1.10;0.70;;;;;;;18.57;52.83;100637.16;5066058;28;20114;-66
2023/12/25 08:19:12;;;;;;;0.75;0.60;;;;;;;18.54;53.31;100642.69;5048380;28;20040;-66
2023/12/25 08:21:38;;;;;;;1.05;0.70;;;;;;;18.48;53.27;100623.78;5065971;28;20078;-67
2023/12/25 08:24:03;;;;;;;0.60;0.57;;;;;;;18.59;53.52;100638.66;5065467;28;20043;-67
2023/12/25 08:26:29;;;;;;;1.25;0.77;;;;;;;18.48;53.40;100626.44;5064428;28;20461;-68
2023/12/25 08:28:54;;;;;;;0.98;0.70;;;;;;;18.61;53.73;100651.75;5066525;28;20107;-69
2023/12/25 08:31:19;;;;;;;0.80;0.60;;;;;;;18.55;53.57;100631.16;5066318;28;20068;-67
2023/12/25 08:33:45;;;;;;;0.88;0.60;;;;;;;18.47;53.60;100619.47;5066548;28;20358;-68
2023/12/25 08:36:10;;;;;;;1.40;0.60;;;;;;;18.55;53.80;100623.22;5066473;28;20024;-67
2023/12/25 08:38:35;;;;;;;0.70;0.60;;;;;;;18.58;53.68;100636.16;5066412;28;20071;-68
2023/12/25 08:41:02;;;;;;;0.85;0.60;;;;;;;18.58;53.79;100636.16;5066072;28;20071;-69
2023/12/25 08:43:28;;;;;;;1.23;0.70;;;;;;;18.62;53.68;100648.97;5065898;28;20871;-67
2023/12/25 08:45:53;;;;;;;1.88;0.70;;;;;;;18.62;53.92;100638.41;5066085;28;20044;-68
2023/12/25 08:48:18;;;;;;;1.50;0.68;;;;;;;18.61;53.61;100646.47;5047562;28;20056;-67
2023/12/25 08:50:44;;;;;;;1.43;0.80;;;;;;;18.60;53.88;100642.16;5064011;28;20037;-67
2023/12/25 08:53:09;;;;;;;2.28;0.80;;;;;;;18.68;53.89;100658.16;5066488;28;20285;-68
2023/12/25 08:55:34;;;;;;;1.98;0.80;;;;;;;18.68;53.62;100666.91;5066123;28;20083;-68
2023/12/25 08:58:00;;;;;;;1.77;0.80;;;;;;;18.59;53.83;100658.97;5066541;28;20063;-69
2023/12/25 09:00:25;;;;;;;0.82;0.60;;;;;;;18.57;54.00;100664.38;5066313;28;20358;-68
2023/12/25 09:02:50;;;;;;;1.85;0.80;;;;;;;18.70;53.69;100671.25;5047517;28;20025;-69
2023/12/25 09:05:15;;;;;;;1.92;0.70;;;;;;;18.64;53.95;100648.84;5064713;28;20071;-68
2023/12/25 09:07:41;;;;;;;2.65;0.93;;;;;;;18.70;54.71;100656.22;5064621;28;20407;-68
2023/12/25 09:10:06;;;;;;;4.43;1.40;;;;;;;18.74;55.03;100659.44;5047456;28;20461;-68
2023/12/25 09:12:33;;;;;;;3.05;1.13;;;;;;;18.68;55.17;100647.63;5066268;28;20028;-66
2023/12/25 09:14:58;;;;;;;4.72;1.73;;;;;;;18.66;55.53;100653.03;5061172;28;20154;-68
2023/12/25 09:17:23;;;;;;;4.22;1.45;;;;;;;18.76;55.61;100676.00;5065084;28;20021;-69
2023/12/25 09:19:49;;;;;;;5.35;1.52;;;;;;;18.69;56.01;100667.75;5064335;28;20101;-68
2023/12/25 09:22:14;;;;;;;4.10;1.40;;;;;;;18.76;55.94;100690.03;5063759;28;20033;-68
2023/12/25 09:24:44;;;;;;;6.50;1.80;;;;;;;18.74;55.74;100691.09;5063578;28;20111;-69
2023/12/25 09:27:10;;;;;;;4.05;1.40;;;;;;;18.76;55.73;100689.19;5063199;28;20051;-67
2023/12/25 09:29:35;;;;;;;4.28;1.40;;;;;;;18.75;55.92;100706.00;5064306;28;20183;-68
2023/12/25 09:32:00;;;;;;;4.35;1.38;;;;;;;18.77;55.83;100714.59;5063811;28;20532;-67
2023/12/25 09:34:25;;;;;;;4.80;1.77;;;;;;;18.78;55.91;100725.03;5064637;28;20036;-67
2023/12/25 09:36:55;;;;;;;3.08;1.30;;;;;;;18.78;55.95;100719.75;5064829;28;20661;-68
2023/12/25 09:39:20;;;;;;;4.28;1.27;;;;;;;18.69;55.71;100707.34;5065458;28;20032;-66
2023/12/25 09:41:46;;;;;;;3.65;1.40;;;;;;;18.68;55.56;100717.06;5063504;28;20047;-68
2023/12/25 09:44:11;;;;;;;5.32;1.52;;;;;;;18.75;55.53;100733.22;5062265;28;20043;-66
2023/12/25 09:46:38;;;;;;;5.55;1.30;;;;;;;18.75;55.43;100730.56;5061861;28;20428;-68
2023/12/25 09:49:05;;;;;;;4.65;1.40;;;;;;;18.74;55.24;100725.44;5042714;28;20045;-68
2023/12/25 09:51:33;;;;;;;3.65;1.50;;;;;;;18.65;55.22;100717.34;5042728;28;20033;-66
2023/12/25 09:53:58;;;;;;;4.18;1.50;;;;;;;18.62;55.30;100699.13;5045331;28;20068;-68
2023/12/25 09:56:26;;;;;;;3.55;1.33;;;;;;;18.72;55.24;100715.00;5046874;28;20064;-66
2023/12/25 09:58:53;;;;;;;2.97;1.20;;;;;;;18.68;55.30;100709.16;5046762;28;20029;-66
2023/12/25 10:01:20;;;;;;;4.18;1.20;;;;;;;18.70;55.28;100708.19;5047653;28;20068;-67
2023/12/25 10:03:46;;;;;;;4.22;1.58;;;;;;;18.60;55.27;100694.97;5036116;28;20021;-68
2023/12/25 10:06:12;;;;;;;3.15;1.10;;;;;;;18.69;55.65;100702.06;5046788;28;20086;-68
2023/12/25 10:08:39;;;;;;;3.75;1.13;;;;;;;18.65;55.69;100698.03;5043097;28;20091;-68
2023/12/25 10:11:08;;;;;;;3.08;1.27;;;;;;;18.75;55.63;100708.63;5035759;28;20029;-68
2023/12/25 10:13:34;;;;;;;2.25;1.00;;;;;;;18.74;55.74;100723.66;5044964;28;20032;-68
2023/12/25 10:16:02;;;;;;;2.63;1.10;;;;;;;18.75;55.61;100730.56;5045688;28;20450;-66
2023/12/25 10:18:27;;;;;;;4.50;1.13;;;;;;;18.70;55.40;100730.13;5049028;28;20036;-68
2023/12/25 10:20:57;;;;;;;2.80;1.23;;;;;;;18.62;55.21;100711.50;5047207;28;20045;-67
2023/12/25 10:23:30;;;;;;;3.63;1.17;;;;;;;18.61;55.29;100723.84;5049458;28;20091;-68
2023/12/25 10:25:57;;;;;;;2.50;1.00;;;;;;;18.65;55.12;100734.97;5048792;28;20041;-67
2023/12/25 10:28:27;;;;;;;3.63;1.05;;;;;;;18.70;55.25;100738.06;5040819;28;20036;-70
2023/12/25 10:31:06;;;;;;;2.72;0.90;;;;;;;18.73;55.38;100740.44;5040871;28;20099;-68
2023/12/25 10:33:33;;;;;;;2.33;0.90;;;;;;;18.73;55.34;100724.59;5043565;28;20045;-68
2023/12/25 10:36:09;;;;;;;2.53;1.05;;;;;;;18.62;55.36;100735.25;5047352;28;20028;-69
2023/12/25 10:38:42;;;;;;;2.67;1.00;;;;;;;18.63;54.90;100734.28;5047428;28;20063;-68
2023/12/25 10:41:21;;;;;;;2.80;1.00;;;;;;;18.72;55.13;100748.50;5045880;28;20064;-69
2023/12/25 10:43:54;;;;;;;2.63;0.90;;;;;;;18.69;54.99;100731.09;5046057;28;21085;-69
2023/12/25 10:46:25;;;;;;;2.00;0.87;;;;;;;18.70;55.06;100735.41;5046919;28;20033;-68
2023/12/25 10:48:55;;;;;;;4.63;1.10;;;;;;;18.68;54.83;100740.84;5064209;28;20808;-68
2023/12/25 10:51:30;;;;;;;2.05;0.77;;;;;;;18.66;54.80;100745.41;5067612;28;20469;-69
2023/12/25 10:53:59;;;;;;;3.88;1.15;;;;;;;18.63;54.70;100736.94;5067720;28;20032;-71
2023/12/25 10:56:25;;;;;;;2.22;0.80;;;;;;;18.68;54.73;100742.66;5067791;28;20117;-69
2023/12/25 10:58:51;;;;;;;1.95;0.73;;;;;;;18.66;54.35;100737.50;5068052;28;20035;-67
2023/12/25 11:01:23;;;;;;;2.72;0.88;;;;;;;18.55;54.55;100719.09;5067625;28;20473;-68
2023/12/25 11:03:49;;;;;;;2.38;0.95;;;;;;;18.65;54.56;100732.34;5067198;28;20035;-66
2023/12/25 11:06:16;;;;;;;2.53;0.80;;;;;;;18.65;54.64;100742.91;5066711;28;20031;-68
2023/12/25 11:08:43;;;;;;;2.50;0.80;;;;;;;18.61;54.55;100744.13;5049752;28;20731;-70
2023/12/25 11:11:09;;;;;;;2.72;1.00;;;;;;;18.58;54.66;100737.31;5067832;28;20028;-67
2023/12/25 11:13:35;;;;;;;2.28;0.88;;;;;;;18.55;54.50;100740.22;5068335;28;20037;-68
2023/12/25 11:16:00;;;;;;;3.50;0.90;;;;;;;18.65;54.40;100758.75;5067844;28;20043;-68
2023/12/25 11:18:26;;;;;;;1.75;0.82;;;;;;;18.53;54.56;100725.47;5068211;28;20461;-69